sensor_id;sensor_type;location;lat;lon;timestamp;P1;durP1;ratioP1;P2;durP2;ratioP2
14984;SDS011;7588;62.368;25.902;2023-02-11T04:44:49;3.43;;;2.73;;
14984;SDS011;7588;62.368;25.902;2023-02-11T04:47:15;5.60;;;3.00;;
14984;SDS011;7588;62.368;25.902;2023-02-11T04:49:40;3.53;;;2.73;;
14984;SDS011;7588;62.368;25.902;2023-02-11T04:52:06;4.37;;;3.03;;
14984;SDS011;7588;62.368;25.902;2023-02-11T04:54:33;7.77;;;2.70;;
14984;SDS011;7588;62.368;25.902;2023-02-11T04:56:58;7.73;;;3.30;;
14984;SDS011;7588;62.368;25.902;2023-02-11T04:59:24;6.17;;;2.83;;
14984;SDS011;7588;62.368;25.902;2023-02-11T05:01:50;5.13;;;2.97;;
14984;SDS011;7588;62.368;25.902;2023-02-11T05:04:16;8.67;;;3.57;;
14984;SDS011;7588;62.368;25.902;2023-02-11T05:06:42;6.33;;;2.90;;
14984;SDS011;7588;62.368;25.902;2023-02-11T05:09:09;6.30;;;2.97;;
14984;SDS011;7588;62.368;25.902;2023-02-11T05:11:36;4.90;;;2.00;;
14984;SDS011;7588;62.368;25.902;2023-02-11T05:14:03;3.47;;;3.03;;
14984;SDS011;7588;62.368;25.902;2023-02-11T05:16:30;10.70;;;3.30;;
14984;SDS011;7588;62.368;25.902;2023-02-11T05:18:55;6.13;;;3.07;;
14984;SDS011;7588;62.368;25.902;2023-02-11T05:21:22;7.10;;;3.10;;
14984;SDS011;7588;62.368;25.902;2023-02-11T05:23:48;4.33;;;3.13;;
14984;SDS011;7588;62.368;25.902;2023-02-11T05:26:14;7.07;;;3.20;;
14984;SDS011;7588;62.368;25.902;2023-02-11T05:28:40;9.30;;;2.90;;
14984;SDS011;7588;62.368;25.902;2023-02-11T05:31:06;4.27;;;2.23;;
14984;SDS011;7588;62.368;25.902;2023-02-11T05:33:32;4.33;;;2.60;;
14984;SDS011;7588;62.368;25.902;2023-02-11T05:35:58;6.00;;;2.93;;
14984;SDS011;7588;62.368;25.902;2023-02-11T05:38:25;5.77;;;2.40;;
14984;SDS011;7588;62.368;25.902;2023-02-11T05:40:51;3.90;;;2.77;;
14984;SDS011;7588;62.368;25.902;2023-02-11T05:43:17;6.33;;;3.13;;
14984;SDS011;7588;62.368;25.902;2023-02-11T05:45:42;4.43;;;2.90;;
14984;SDS011;7588;62.368;25.902;2023-02-11T05:48:08;5.60;;;2.47;;
14984;SDS011;7588;62.368;25.902;2023-02-11T05:50:34;6.67;;;3.33;;
14984;SDS011;7588;62.368;25.902;2023-02-11T05:52:59;5.87;;;3.30;;
14984;SDS011;7588;62.368;25.902;2023-02-11T05:55:25;4.37;;;3.37;;
14984;SDS011;7588;62.368;25.902;2023-02-11T05:57:51;4.90;;;3.20;;
14984;SDS011;7588;62.368;25.902;2023-02-11T06:00:16;5.00;;;3.53;;
14984;SDS011;7588;62.368;25.902;2023-02-11T06:02:43;3.50;;;3.20;;
14984;SDS011;7588;62.368;25.902;2023-02-11T06:05:08;8.47;;;3.60;;
14984;SDS011;7588;62.368;25.902;2023-02-11T06:07:34;5.87;;;3.50;;
14984;SDS011;7588;62.368;25.902;2023-02-11T06:10:00;5.43;;;3.90;;
14984;SDS011;7588;62.368;25.902;2023-02-11T06:12:25;7.47;;;3.77;;
14984;SDS011;7588;62.368;25.902;2023-02-11T06:14:52;5.20;;;3.03;;
14984;SDS011;7588;62.368;25.902;2023-02-11T06:17:17;4.40;;;3.97;;
14984;SDS011;7588;62.368;25.902;2023-02-11T06:19:43;6.27;;;4.00;;
14984;SDS011;7588;62.368;25.902;2023-02-11T06:22:09;5.40;;;4.47;;
14984;SDS011;7588;62.368;25.902;2023-02-11T06:24:35;8.57;;;4.00;;
14984;SDS011;7588;62.368;25.902;2023-02-11T06:27:02;6.97;;;3.50;;
14984;SDS011;7588;62.368;25.902;2023-02-11T06:29:29;4.63;;;3.70;;
14984;SDS011;7588;62.368;25.902;2023-02-11T06:31:55;6.63;;;3.97;;
14984;SDS011;7588;62.368;25.902;2023-02-11T06:34:20;12.80;;;7.40;;
14984;SDS011;7588;62.368;25.902;2023-02-11T06:36:46;14.07;;;8.27;;
14984;SDS011;7588;62.368;25.902;2023-02-11T06:39:12;9.27;;;5.10;;
14984;SDS011;7588;62.368;25.902;2023-02-11T06:41:38;12.53;;;7.17;;
14984;SDS011;7588;62.368;25.902;2023-02-11T06:44:04;10.90;;;5.20;;
14984;SDS011;7588;62.368;25.902;2023-02-11T06:46:30;12.63;;;6.10;;
14984;SDS011;7588;62.368;25.902;2023-02-11T06:48:56;8.57;;;4.67;;
14984;SDS011;7588;62.368;25.902;2023-02-11T06:51:21;10.03;;;4.27;;
14984;SDS011;7588;62.368;25.902;2023-02-11T06:53:47;3.50;;;3.13;;
14984;SDS011;7588;62.368;25.902;2023-02-11T06:56:20;5.47;;;3.93;;
14984;SDS011;7588;62.368;25.902;2023-02-11T06:58:47;8.07;;;3.37;;
14984;SDS011;7588;62.368;25.902;2023-02-11T07:01:18;3.80;;;3.50;;
14984;SDS011;7588;62.368;25.902;2023-02-11T07:03:44;6.87;;;4.10;;
14984;SDS011;7588;62.368;25.902;2023-02-11T07:06:15;8.83;;;3.90;;
14984;SDS011;7588;62.368;25.902;2023-02-11T07:08:43;4.90;;;3.47;;
14984;SDS011;7588;62.368;25.902;2023-02-11T07:13:36;7.10;;;3.83;;
14984;SDS011;7588;62.368;25.902;2023-02-11T07:16:04;7.90;;;3.80;;
14984;SDS011;7588;62.368;25.902;2023-02-11T07:18:35;4.73;;;2.97;;
14984;SDS011;7588;62.368;25.902;2023-02-11T07:21:05;6.63;;;4.20;;
14984;SDS011;7588;62.368;25.902;2023-02-11T07:23:35;7.43;;;4.03;;
14984;SDS011;7588;62.368;25.902;2023-02-11T07:26:02;6.33;;;3.80;;
14984;SDS011;7588;62.368;25.902;2023-02-11T07:28:29;8.33;;;3.80;;
14984;SDS011;7588;62.368;25.902;2023-02-11T07:30:55;5.80;;;4.70;;
14984;SDS011;7588;62.368;25.902;2023-02-11T07:33:20;6.63;;;5.17;;
14984;SDS011;7588;62.368;25.902;2023-02-11T07:35:46;11.80;;;5.63;;
14984;SDS011;7588;62.368;25.902;2023-02-11T07:38:12;10.47;;;6.93;;
14984;SDS011;7588;62.368;25.902;2023-02-11T07:40:38;12.47;;;9.97;;
14984;SDS011;7588;62.368;25.902;2023-02-11T07:43:03;10.40;;;7.30;;
14984;SDS011;7588;62.368;25.902;2023-02-11T07:45:29;7.00;;;6.40;;
14984;SDS011;7588;62.368;25.902;2023-02-11T07:47:55;11.07;;;5.70;;
14984;SDS011;7588;62.368;25.902;2023-02-11T07:50:21;5.80;;;4.13;;
14984;SDS011;7588;62.368;25.902;2023-02-11T07:52:46;8.43;;;4.93;;
14984;SDS011;7588;62.368;25.902;2023-02-11T07:55:12;8.50;;;4.67;;
14984;SDS011;7588;62.368;25.902;2023-02-11T07:57:38;9.10;;;4.50;;
14984;SDS011;7588;62.368;25.902;2023-02-11T08:00:05;11.77;;;5.27;;
14984;SDS011;7588;62.368;25.902;2023-02-11T08:02:31;9.40;;;4.83;;
14984;SDS011;7588;62.368;25.902;2023-02-11T08:04:57;5.53;;;3.93;;
14984;SDS011;7588;62.368;25.902;2023-02-11T08:07:22;6.10;;;3.60;;
14984;SDS011;7588;62.368;25.902;2023-02-11T08:09:48;6.97;;;3.60;;
14984;SDS011;7588;62.368;25.902;2023-02-11T08:12:14;5.03;;;4.03;;
14984;SDS011;7588;62.368;25.902;2023-02-11T08:14:41;5.57;;;3.50;;
14984;SDS011;7588;62.368;25.902;2023-02-11T08:17:07;4.40;;;4.10;;
14984;SDS011;7588;62.368;25.902;2023-02-11T08:19:32;6.13;;;5.53;;
14984;SDS011;7588;62.368;25.902;2023-02-11T08:21:58;5.17;;;3.73;;
14984;SDS011;7588;62.368;25.902;2023-02-11T08:24:25;4.63;;;3.50;;
14984;SDS011;7588;62.368;25.902;2023-02-11T08:26:51;3.40;;;2.80;;
14984;SDS011;7588;62.368;25.902;2023-02-11T08:29:16;4.80;;;3.37;;
14984;SDS011;7588;62.368;25.902;2023-02-11T08:31:43;4.90;;;3.10;;
14984;SDS011;7588;62.368;25.902;2023-02-11T08:34:10;5.93;;;3.20;;
14984;SDS011;7588;62.368;25.902;2023-02-11T08:36:39;5.50;;;3.10;;
14984;SDS011;7588;62.368;25.902;2023-02-11T08:39:07;5.47;;;2.93;;
14984;SDS011;7588;62.368;25.902;2023-02-11T08:41:37;3.40;;;2.83;;
14984;SDS011;7588;62.368;25.902;2023-02-11T08:44:03;4.20;;;2.60;;
14984;SDS011;7588;62.368;25.902;2023-02-11T08:46:29;3.10;;;2.80;;
14984;SDS011;7588;62.368;25.902;2023-02-11T08:48:55;2.90;;;2.70;;
14984;SDS011;7588;62.368;25.902;2023-02-11T08:51:24;4.97;;;2.70;;
14984;SDS011;7588;62.368;25.902;2023-02-11T08:53:52;2.90;;;2.70;;
14984;SDS011;7588;62.368;25.902;2023-02-11T08:56:19;3.97;;;3.20;;
14984;SDS011;7588;62.368;25.902;2023-02-11T08:58:47;6.33;;;2.30;;
14984;SDS011;7588;62.368;25.902;2023-02-11T09:01:16;4.03;;;2.50;;
14984;SDS011;7588;62.368;25.902;2023-02-11T09:03:49;5.43;;;2.70;;
14984;SDS011;7588;62.368;25.902;2023-02-11T09:06:15;3.07;;;2.13;;
14984;SDS011;7588;62.368;25.902;2023-02-11T09:08:43;5.47;;;2.50;;
14984;SDS011;7588;62.368;25.902;2023-02-11T09:11:10;5.87;;;2.40;;
14984;SDS011;7588;62.368;25.902;2023-02-11T09:13:37;3.00;;;2.53;;
14984;SDS011;7588;62.368;25.902;2023-02-11T09:16:04;2.73;;;1.90;;
14984;SDS011;7588;62.368;25.902;2023-02-11T09:18:30;5.23;;;2.10;;
14984;SDS011;7588;62.368;25.902;2023-02-11T09:21:03;5.00;;;2.57;;
14984;SDS011;7588;62.368;25.902;2023-02-11T09:23:30;3.87;;;2.00;;
14984;SDS011;7588;62.368;25.902;2023-02-11T09:25:58;6.30;;;3.60;;
14984;SDS011;7588;62.368;25.902;2023-02-11T09:28:29;5.33;;;2.07;;
14984;SDS011;7588;62.368;25.902;2023-02-11T09:30:55;3.20;;;2.20;;
14984;SDS011;7588;62.368;25.902;2023-02-11T09:33:20;2.40;;;2.00;;
14984;SDS011;7588;62.368;25.902;2023-02-11T09:35:46;5.33;;;2.83;;
14984;SDS011;7588;62.368;25.902;2023-02-11T09:38:12;6.00;;;2.70;;
14984;SDS011;7588;62.368;25.902;2023-02-11T09:40:42;2.83;;;2.10;;
14984;SDS011;7588;62.368;25.902;2023-02-11T09:46:09;2.50;;;2.30;;
14984;SDS011;7588;62.368;25.902;2023-02-11T09:48:39;3.40;;;1.87;;
14984;SDS011;7588;62.368;25.902;2023-02-11T09:51:11;3.20;;;1.93;;
14984;SDS011;7588;62.368;25.902;2023-02-11T09:53:48;2.10;;;1.60;;
14984;SDS011;7588;62.368;25.902;2023-02-11T09:56:17;3.33;;;2.00;;
14984;SDS011;7588;62.368;25.902;2023-02-11T09:58:43;4.90;;;2.37;;
14984;SDS011;7588;62.368;25.902;2023-02-11T10:04:05;4.57;;;2.40;;
14984;SDS011;7588;62.368;25.902;2023-02-11T10:06:46;3.60;;;1.90;;
14984;SDS011;7588;62.368;25.902;2023-02-11T10:09:17;6.73;;;2.53;;
14984;SDS011;7588;62.368;25.902;2023-02-11T10:18:14;4.00;;;2.10;;
14984;SDS011;7588;62.368;25.902;2023-02-11T10:23:04;5.13;;;2.07;;
14984;SDS011;7588;62.368;25.902;2023-02-11T10:25:48;5.30;;;2.17;;
14984;SDS011;7588;62.368;25.902;2023-02-11T10:28:36;1.97;;;1.80;;
14984;SDS011;7588;62.368;25.902;2023-02-11T10:33:35;4.27;;;1.83;;
14984;SDS011;7588;62.368;25.902;2023-02-11T10:36:21;1.80;;;1.70;;
14984;SDS011;7588;62.368;25.902;2023-02-11T10:38:50;2.63;;;2.07;;
14984;SDS011;7588;62.368;25.902;2023-02-11T10:41:16;3.73;;;1.63;;
14984;SDS011;7588;62.368;25.902;2023-02-11T10:43:46;6.80;;;1.70;;
14984;SDS011;7588;62.368;25.902;2023-02-11T10:46:16;4.70;;;1.80;;
14984;SDS011;7588;62.368;25.902;2023-02-11T10:48:48;3.63;;;1.77;;
14984;SDS011;7588;62.368;25.902;2023-02-11T10:51:30;1.77;;;1.67;;
14984;SDS011;7588;62.368;25.902;2023-02-11T10:56:28;4.53;;;1.90;;
14984;SDS011;7588;62.368;25.902;2023-02-11T10:58:58;3.53;;;1.40;;
14984;SDS011;7588;62.368;25.902;2023-02-11T11:07:12;3.37;;;1.60;;
14984;SDS011;7588;62.368;25.902;2023-02-11T11:09:52;2.30;;;1.80;;
14984;SDS011;7588;62.368;25.902;2023-02-11T11:12:26;4.10;;;2.07;;
14984;SDS011;7588;62.368;25.902;2023-02-11T11:18:16;8.97;;;1.80;;
14984;SDS011;7588;62.368;25.902;2023-02-11T11:20:58;3.87;;;1.83;;
14984;SDS011;7588;62.368;25.902;2023-02-11T11:23:26;4.10;;;1.57;;
14984;SDS011;7588;62.368;25.902;2023-02-11T11:31:04;2.20;;;1.80;;
14984;SDS011;7588;62.368;25.902;2023-02-11T11:33:39;1.70;;;1.60;;
14984;SDS011;7588;62.368;25.902;2023-02-11T11:36:08;3.57;;;1.47;;
14984;SDS011;7588;62.368;25.902;2023-02-11T11:38:41;5.50;;;1.87;;
14984;SDS011;7588;62.368;25.902;2023-02-11T11:41:17;3.20;;;1.70;;
14984;SDS011;7588;62.368;25.902;2023-02-11T11:44:02;1.93;;;1.70;;
14984;SDS011;7588;62.368;25.902;2023-02-11T11:46:45;2.60;;;1.80;;
14984;SDS011;7588;62.368;25.902;2023-02-11T11:51:50;4.27;;;1.50;;
14984;SDS011;7588;62.368;25.902;2023-02-11T11:54:39;2.57;;;1.70;;
14984;SDS011;7588;62.368;25.902;2023-02-11T11:57:13;2.37;;;1.70;;
14984;SDS011;7588;62.368;25.902;2023-02-11T11:59:42;6.37;;;1.27;;
14984;SDS011;7588;62.368;25.902;2023-02-11T12:18:44;2.27;;;1.40;;
14984;SDS011;7588;62.368;25.902;2023-02-11T12:29:56;4.33;;;1.80;;
14984;SDS011;7588;62.368;25.902;2023-02-11T12:35:17;2.23;;;1.67;;
14984;SDS011;7588;62.368;25.902;2023-02-11T12:38:31;4.23;;;1.83;;
14984;SDS011;7588;62.368;25.902;2023-02-11T12:44:31;3.40;;;1.77;;
14984;SDS011;7588;62.368;25.902;2023-02-11T12:52:35;5.57;;;1.77;;
14984;SDS011;7588;62.368;25.902;2023-02-11T12:55:16;3.43;;;2.00;;
14984;SDS011;7588;62.368;25.902;2023-02-11T12:57:47;4.30;;;2.17;;
14984;SDS011;7588;62.368;25.902;2023-02-11T13:00:20;4.93;;;2.30;;
14984;SDS011;7588;62.368;25.902;2023-02-11T13:02:59;5.27;;;2.30;;
14984;SDS011;7588;62.368;25.902;2023-02-11T13:08:08;2.77;;;1.90;;
14984;SDS011;7588;62.368;25.902;2023-02-11T13:10:40;2.77;;;1.70;;
14984;SDS011;7588;62.368;25.902;2023-02-11T13:13:21;2.80;;;1.60;;
14984;SDS011;7588;62.368;25.902;2023-02-11T13:15:53;2.63;;;1.47;;
14984;SDS011;7588;62.368;25.902;2023-02-11T13:26:31;4.60;;;1.60;;
14984;SDS011;7588;62.368;25.902;2023-02-11T13:37:12;4.83;;;1.60;;
14984;SDS011;7588;62.368;25.902;2023-02-11T13:39:54;4.57;;;1.57;;
14984;SDS011;7588;62.368;25.902;2023-02-11T13:42:25;1.60;;;1.50;;
14984;SDS011;7588;62.368;25.902;2023-02-11T13:44:51;2.90;;;1.40;;
14984;SDS011;7588;62.368;25.902;2023-02-11T13:47:28;3.27;;;1.50;;
14984;SDS011;7588;62.368;25.902;2023-02-11T13:49:59;2.10;;;1.67;;
14984;SDS011;7588;62.368;25.902;2023-02-11T13:52:30;2.37;;;1.60;;
14984;SDS011;7588;62.368;25.902;2023-02-11T13:55:22;1.67;;;1.50;;
14984;SDS011;7588;62.368;25.902;2023-02-11T13:58:48;4.70;;;1.73;;
14984;SDS011;7588;62.368;25.902;2023-02-11T14:00:51;2.70;;;1.70;;
14984;SDS011;7588;62.368;25.902;2023-02-11T14:03:25;4.23;;;1.80;;
14984;SDS011;7588;62.368;25.902;2023-02-11T14:11:54;4.40;;;2.77;;
14984;SDS011;7588;62.368;25.902;2023-02-11T14:14:59;2.30;;;2.10;;
14984;SDS011;7588;62.368;25.902;2023-02-11T14:17:45;6.67;;;2.60;;
14984;SDS011;7588;62.368;25.902;2023-02-11T14:22:58;4.40;;;2.20;;
14984;SDS011;7588;62.368;25.902;2023-02-11T14:25:24;3.60;;;2.37;;
14984;SDS011;7588;62.368;25.902;2023-02-11T14:30:42;6.70;;;2.50;;
14984;SDS011;7588;62.368;25.902;2023-02-11T14:36:49;4.57;;;2.50;;
14984;SDS011;7588;62.368;25.902;2023-02-11T14:40:13;3.33;;;2.80;;
14984;SDS011;7588;62.368;25.902;2023-02-11T14:42:32;5.67;;;2.80;;
14984;SDS011;7588;62.368;25.902;2023-02-11T14:45:05;4.47;;;2.80;;
14984;SDS011;7588;62.368;25.902;2023-02-11T14:50:27;2.10;;;1.90;;
14984;SDS011;7588;62.368;25.902;2023-02-11T14:52:59;3.43;;;2.43;;
14984;SDS011;7588;62.368;25.902;2023-02-11T14:55:28;3.47;;;2.50;;
14984;SDS011;7588;62.368;25.902;2023-02-11T14:58:10;2.80;;;2.50;;
14984;SDS011;7588;62.368;25.902;2023-02-11T15:00:36;2.87;;;2.60;;
14984;SDS011;7588;62.368;25.902;2023-02-11T15:03:39;5.57;;;2.27;;
14984;SDS011;7588;62.368;25.902;2023-02-11T15:06:12;4.23;;;2.30;;
14984;SDS011;7588;62.368;25.902;2023-02-11T15:11:16;2.80;;;2.60;;
14984;SDS011;7588;62.368;25.902;2023-02-11T15:13:44;2.77;;;2.10;;
14984;SDS011;7588;62.368;25.902;2023-02-11T15:16:18;2.37;;;2.03;;
14984;SDS011;7588;62.368;25.902;2023-02-11T15:18:48;2.90;;;2.10;;
14984;SDS011;7588;62.368;25.902;2023-02-11T15:21:22;4.73;;;2.70;;
14984;SDS011;7588;62.368;25.902;2023-02-11T15:23:54;3.57;;;2.43;;
14984;SDS011;7588;62.368;25.902;2023-02-11T15:26:44;4.13;;;2.90;;
14984;SDS011;7588;62.368;25.902;2023-02-11T15:29:19;2.40;;;2.03;;
14984;SDS011;7588;62.368;25.902;2023-02-11T15:31:52;3.70;;;2.40;;
14984;SDS011;7588;62.368;25.902;2023-02-11T15:34:41;2.97;;;2.10;;
14984;SDS011;7588;62.368;25.902;2023-02-11T15:37:12;3.23;;;2.30;;
14984;SDS011;7588;62.368;25.902;2023-02-11T15:39:41;3.27;;;1.90;;
14984;SDS011;7588;62.368;25.902;2023-02-11T15:42:17;2.00;;;1.90;;
14984;SDS011;7588;62.368;25.902;2023-02-11T15:45:06;2.73;;;2.53;;
14984;SDS011;7588;62.368;25.902;2023-02-11T15:47:39;3.90;;;2.50;;
14984;SDS011;7588;62.368;25.902;2023-02-11T15:52:54;4.50;;;3.00;;
14984;SDS011;7588;62.368;25.902;2023-02-11T15:55:23;2.90;;;2.57;;
14984;SDS011;7588;62.368;25.902;2023-02-11T15:57:57;2.60;;;2.40;;
14984;SDS011;7588;62.368;25.902;2023-02-11T16:00:31;2.77;;;2.57;;
14984;SDS011;7588;62.368;25.902;2023-02-11T16:03:00;3.03;;;2.80;;
14984;SDS011;7588;62.368;25.902;2023-02-11T16:07:58;2.70;;;2.50;;
14984;SDS011;7588;62.368;25.902;2023-02-11T16:10:29;4.70;;;2.70;;
14984;SDS011;7588;62.368;25.902;2023-02-11T16:18:23;5.17;;;2.80;;
14984;SDS011;7588;62.368;25.902;2023-02-11T16:20:50;3.17;;;2.40;;
14984;SDS011;7588;62.368;25.902;2023-02-11T16:23:19;2.70;;;2.50;;
14984;SDS011;7588;62.368;25.902;2023-02-11T16:25:49;3.03;;;2.23;;
14984;SDS011;7588;62.368;25.902;2023-02-11T16:28:19;2.80;;;2.60;;
14984;SDS011;7588;62.368;25.902;2023-02-11T16:30:45;5.20;;;3.10;;
14984;SDS011;7588;62.368;25.902;2023-02-11T16:33:17;2.93;;;2.50;;
14984;SDS011;7588;62.368;25.902;2023-02-11T16:35:43;3.47;;;1.90;;
14984;SDS011;7588;62.368;25.902;2023-02-11T16:38:15;2.87;;;2.67;;
14984;SDS011;7588;62.368;25.902;2023-02-11T16:40:41;3.07;;;2.87;;
14984;SDS011;7588;62.368;25.902;2023-02-11T16:43:08;3.53;;;1.93;;
14984;SDS011;7588;62.368;25.902;2023-02-11T16:45:37;5.53;;;2.47;;
14984;SDS011;7588;62.368;25.902;2023-02-11T16:48:07;3.13;;;2.47;;
14984;SDS011;7588;62.368;25.902;2023-02-11T16:50:34;3.07;;;2.43;;
14984;SDS011;7588;62.368;25.902;2023-02-11T16:53:00;2.53;;;2.00;;
14984;SDS011;7588;62.368;25.902;2023-02-11T16:55:30;3.03;;;2.70;;
14984;SDS011;7588;62.368;25.902;2023-02-11T16:57:57;4.40;;;3.43;;
14984;SDS011;7588;62.368;25.902;2023-02-11T17:00:23;2.67;;;2.47;;
14984;SDS011;7588;62.368;25.902;2023-02-11T17:02:49;3.23;;;2.93;;
14984;SDS011;7588;62.368;25.902;2023-02-11T17:05:19;2.80;;;2.53;;
14984;SDS011;7588;62.368;25.902;2023-02-11T17:07:50;5.73;;;2.27;;
14984;SDS011;7588;62.368;25.902;2023-02-11T17:10:17;2.73;;;2.60;;
14984;SDS011;7588;62.368;25.902;2023-02-11T17:12:45;7.00;;;2.37;;
14984;SDS011;7588;62.368;25.902;2023-02-11T17:15:11;2.77;;;2.57;;
14984;SDS011;7588;62.368;25.902;2023-02-11T17:17:37;3.67;;;2.63;;
14984;SDS011;7588;62.368;25.902;2023-02-11T17:20:04;3.27;;;2.33;;
14984;SDS011;7588;62.368;25.902;2023-02-11T17:22:31;3.60;;;2.90;;
14984;SDS011;7588;62.368;25.902;2023-02-11T17:24:57;5.23;;;2.73;;
14984;SDS011;7588;62.368;25.902;2023-02-11T17:27:23;2.80;;;2.47;;
14984;SDS011;7588;62.368;25.902;2023-02-11T17:29:49;2.30;;;2.20;;
14984;SDS011;7588;62.368;25.902;2023-02-11T17:32:15;4.60;;;2.30;;
14984;SDS011;7588;62.368;25.902;2023-02-11T17:34:40;3.53;;;2.40;;
14984;SDS011;7588;62.368;25.902;2023-02-11T17:37:06;4.30;;;2.70;;
14984;SDS011;7588;62.368;25.902;2023-02-11T17:39:37;2.87;;;2.67;;
14984;SDS011;7588;62.368;25.902;2023-02-11T17:42:04;4.20;;;2.30;;
14984;SDS011;7588;62.368;25.902;2023-02-11T17:44:30;2.70;;;2.50;;
14984;SDS011;7588;62.368;25.902;2023-02-11T17:46:58;2.43;;;2.23;;
14984;SDS011;7588;62.368;25.902;2023-02-11T17:49:24;2.83;;;2.63;;
14984;SDS011;7588;62.368;25.902;2023-02-11T17:51:49;4.40;;;2.47;;
14984;SDS011;7588;62.368;25.902;2023-02-11T17:54:16;3.57;;;2.77;;
14984;SDS011;7588;62.368;25.902;2023-02-11T17:56:44;2.70;;;2.60;;
14984;SDS011;7588;62.368;25.902;2023-02-11T17:59:11;3.00;;;2.63;;
14984;SDS011;7588;62.368;25.902;2023-02-11T18:01:38;4.53;;;2.50;;
14984;SDS011;7588;62.368;25.902;2023-02-11T18:04:05;3.87;;;2.63;;
14984;SDS011;7588;62.368;25.902;2023-02-11T18:06:33;3.37;;;2.67;;
14984;SDS011;7588;62.368;25.902;2023-02-11T18:09:00;2.83;;;1.90;;
14984;SDS011;7588;62.368;25.902;2023-02-11T18:11:28;3.93;;;2.90;;
14984;SDS011;7588;62.368;25.902;2023-02-11T18:13:57;3.83;;;2.57;;
14984;SDS011;7588;62.368;25.902;2023-02-11T18:16:24;2.80;;;2.60;;
14984;SDS011;7588;62.368;25.902;2023-02-11T18:18:52;5.60;;;2.47;;
14984;SDS011;7588;62.368;25.902;2023-02-11T18:21:19;2.87;;;2.67;;
14984;SDS011;7588;62.368;25.902;2023-02-11T18:23:46;3.70;;;2.77;;
14984;SDS011;7588;62.368;25.902;2023-02-11T18:26:14;3.57;;;2.30;;
14984;SDS011;7588;62.368;25.902;2023-02-11T18:28:41;5.00;;;2.77;;
14984;SDS011;7588;62.368;25.902;2023-02-11T18:31:08;2.23;;;2.13;;
14984;SDS011;7588;62.368;25.902;2023-02-11T18:33:35;4.60;;;2.00;;
14984;SDS011;7588;62.368;25.902;2023-02-11T18:36:09;3.30;;;1.80;;
14984;SDS011;7588;62.368;25.902;2023-02-11T18:38:38;3.03;;;2.73;;
14984;SDS011;7588;62.368;25.902;2023-02-11T18:41:04;3.43;;;2.20;;
14984;SDS011;7588;62.368;25.902;2023-02-11T18:43:31;2.53;;;2.30;;
14984;SDS011;7588;62.368;25.902;2023-02-11T18:45:58;3.17;;;2.83;;
14984;SDS011;7588;62.368;25.902;2023-02-11T18:48:25;2.63;;;2.53;;
14984;SDS011;7588;62.368;25.902;2023-02-11T18:50:52;4.03;;;2.43;;
14984;SDS011;7588;62.368;25.902;2023-02-11T18:53:19;6.67;;;2.67;;
14984;SDS011;7588;62.368;25.902;2023-02-11T18:55:46;2.33;;;2.20;;
14984;SDS011;7588;62.368;25.902;2023-02-11T18:58:12;2.77;;;2.43;;
14984;SDS011;7588;62.368;25.902;2023-02-11T19:00:40;4.13;;;2.03;;
14984;SDS011;7588;62.368;25.902;2023-02-11T19:03:08;2.97;;;2.63;;
14984;SDS011;7588;62.368;25.902;2023-02-11T19:05:40;3.33;;;2.33;;
14984;SDS011;7588;62.368;25.902;2023-02-11T19:08:10;2.63;;;2.40;;
14984;SDS011;7588;62.368;25.902;2023-02-11T19:10:41;2.97;;;2.50;;
14984;SDS011;7588;62.368;25.902;2023-02-11T19:13:09;4.77;;;2.17;;
14984;SDS011;7588;62.368;25.902;2023-02-11T19:15:39;4.27;;;2.37;;
14984;SDS011;7588;62.368;25.902;2023-02-11T19:18:06;4.87;;;2.73;;
14984;SDS011;7588;62.368;25.902;2023-02-11T19:20:31;4.37;;;3.17;;
14984;SDS011;7588;62.368;25.902;2023-02-11T19:22:58;2.60;;;2.40;;
14984;SDS011;7588;62.368;25.902;2023-02-11T19:25:24;2.60;;;2.47;;
14984;SDS011;7588;62.368;25.902;2023-02-11T19:27:50;3.90;;;2.83;;
14984;SDS011;7588;62.368;25.902;2023-02-11T19:30:16;3.03;;;2.40;;
14984;SDS011;7588;62.368;25.902;2023-02-11T19:32:42;3.27;;;2.97;;
14984;SDS011;7588;62.368;25.902;2023-02-11T19:35:08;5.30;;;2.63;;
14984;SDS011;7588;62.368;25.902;2023-02-11T19:37:33;2.57;;;2.37;;
14984;SDS011;7588;62.368;25.902;2023-02-11T19:39:59;3.17;;;2.87;;
14984;SDS011;7588;62.368;25.902;2023-02-11T19:42:25;5.63;;;2.77;;
14984;SDS011;7588;62.368;25.902;2023-02-11T19:44:51;3.57;;;3.00;;
14984;SDS011;7588;62.368;25.902;2023-02-11T19:47:17;3.87;;;2.53;;
14984;SDS011;7588;62.368;25.902;2023-02-11T19:49:43;2.27;;;2.07;;
14984;SDS011;7588;62.368;25.902;2023-02-11T19:52:09;4.20;;;2.80;;
14984;SDS011;7588;62.368;25.902;2023-02-11T19:54:36;4.20;;;3.60;;
14984;SDS011;7588;62.368;25.902;2023-02-11T19:57:02;3.77;;;2.87;;
14984;SDS011;7588;62.368;25.902;2023-02-11T19:59:28;2.80;;;2.60;;
14984;SDS011;7588;62.368;25.902;2023-02-11T20:01:54;3.20;;;3.00;;
14984;SDS011;7588;62.368;25.902;2023-02-11T20:04:19;6.47;;;2.20;;
14984;SDS011;7588;62.368;25.902;2023-02-11T20:06:45;2.93;;;2.77;;
14984;SDS011;7588;62.368;25.902;2023-02-11T20:09:14;2.90;;;2.27;;
14984;SDS011;7588;62.368;25.902;2023-02-11T20:11:40;3.07;;;2.87;;
14984;SDS011;7588;62.368;25.902;2023-02-11T20:14:06;2.93;;;2.73;;
14984;SDS011;7588;62.368;25.902;2023-02-11T20:16:34;2.80;;;2.60;;
14984;SDS011;7588;62.368;25.902;2023-02-11T20:19:00;3.00;;;2.80;;
14984;SDS011;7588;62.368;25.902;2023-02-11T20:21:29;3.33;;;2.70;;
14984;SDS011;7588;62.368;25.902;2023-02-11T20:23:56;3.50;;;3.00;;
14984;SDS011;7588;62.368;25.902;2023-02-11T20:26:27;5.73;;;2.30;;
14984;SDS011;7588;62.368;25.902;2023-02-11T20:28:56;2.93;;;2.70;;
14984;SDS011;7588;62.368;25.902;2023-02-11T20:31:26;3.07;;;2.57;;
14984;SDS011;7588;62.368;25.902;2023-02-11T20:33:53;4.07;;;3.13;;
14984;SDS011;7588;62.368;25.902;2023-02-11T20:36:28;3.13;;;2.90;;
14984;SDS011;7588;62.368;25.902;2023-02-11T20:38:56;7.00;;;3.33;;
14984;SDS011;7588;62.368;25.902;2023-02-11T20:41:33;7.57;;;2.60;;
14984;SDS011;7588;62.368;25.902;2023-02-11T20:44:02;3.70;;;3.43;;
14984;SDS011;7588;62.368;25.902;2023-02-11T20:46:30;3.30;;;2.90;;
14984;SDS011;7588;62.368;25.902;2023-02-11T20:48:57;2.73;;;2.63;;
14984;SDS011;7588;62.368;25.902;2023-02-11T20:51:28;3.90;;;2.37;;
14984;SDS011;7588;62.368;25.902;2023-02-11T20:53:55;2.50;;;2.30;;
14984;SDS011;7588;62.368;25.902;2023-02-11T20:56:25;4.17;;;3.03;;
14984;SDS011;7588;62.368;25.902;2023-02-11T20:58:53;2.87;;;2.67;;
14984;SDS011;7588;62.368;25.902;2023-02-11T21:01:21;4.27;;;3.03;;
14984;SDS011;7588;62.368;25.902;2023-02-11T21:03:51;3.37;;;2.30;;
14984;SDS011;7588;62.368;25.902;2023-02-11T21:06:22;3.27;;;2.70;;
14984;SDS011;7588;62.368;25.902;2023-02-11T21:08:49;2.90;;;2.40;;
14984;SDS011;7588;62.368;25.902;2023-02-11T21:11:15;4.83;;;2.80;;
14984;SDS011;7588;62.368;25.902;2023-02-11T21:13:41;2.33;;;2.10;;
14984;SDS011;7588;62.368;25.902;2023-02-11T21:16:08;2.77;;;2.57;;
14984;SDS011;7588;62.368;25.902;2023-02-11T21:18:38;3.30;;;2.70;;
14984;SDS011;7588;62.368;25.902;2023-02-11T21:21:04;3.23;;;2.20;;
14984;SDS011;7588;62.368;25.902;2023-02-11T21:23:30;4.47;;;1.90;;
14984;SDS011;7588;62.368;25.902;2023-02-11T21:25:56;5.90;;;2.93;;
14984;SDS011;7588;62.368;25.902;2023-02-11T21:28:22;3.57;;;3.10;;
14984;SDS011;7588;62.368;25.902;2023-02-11T21:30:52;3.10;;;2.90;;
14984;SDS011;7588;62.368;25.902;2023-02-11T21:33:19;3.23;;;2.80;;
14984;SDS011;7588;62.368;25.902;2023-02-11T21:35:44;3.13;;;2.87;;
14984;SDS011;7588;62.368;25.902;2023-02-11T21:38:10;4.03;;;2.40;;
14984;SDS011;7588;62.368;25.902;2023-02-11T21:40:36;5.27;;;3.50;;
14984;SDS011;7588;62.368;25.902;2023-02-11T21:43:02;4.10;;;2.20;;
14984;SDS011;7588;62.368;25.902;2023-02-11T21:45:29;3.20;;;2.67;;
14984;SDS011;7588;62.368;25.902;2023-02-11T21:47:56;4.17;;;2.90;;
14984;SDS011;7588;62.368;25.902;2023-02-11T21:50:22;3.90;;;2.60;;